Time;durP1;ratioP1;P1;durP2;ratioP2;P2;SDS_P1;SDS_P2;PMS_P1;PMS_P2;Temp;Humidity;BMP_temperature;BMP_pressure;BME280_temperature;BME280_humidity;BME280_pressure;Samples;Min_cycle;Max_cycle;Signal;HPM_P1;HPM_P2
2020/12/19 00:00:50;;;;;;;27.47;10.20;;;;;;;-0.99;100.00;101670.66;5039524;28;20216;-74
2020/12/19 00:03:16;;;;;;;29.37;10.53;;;;;;;-1.03;100.00;101667.94;5054466;28;20199;-74
2020/12/19 00:05:42;;;;;;;26.23;10.03;;;;;;;-1.05;100.00;101661.91;5051140;28;20226;-74
2020/12/19 00:08:08;;;;;;;25.07;9.83;;;;;;;-1.13;100.00;101664.16;5039572;28;20200;-73
2020/12/19 00:10:34;;;;;;;26.70;10.37;;;;;;;-1.19;100.00;101662.22;5051382;28;20218;-73
2020/12/19 00:13:00;;;;;;;23.13;9.20;;;;;;;-1.19;100.00;101653.69;5049144;28;20207;-73
2020/12/19 00:15:27;;;;;;;21.83;10.03;;;;;;;-1.25;100.00;101664.56;5044120;28;20731;-73
2020/12/19 00:17:54;;;;;;;24.20;10.23;;;;;;;-1.24;100.00;101661.19;5061471;28;20203;-74
2020/12/19 00:20:20;;;;;;;20.30;9.03;;;;;;;-1.28;100.00;101649.09;5045715;28;20238;-74
2020/12/19 00:22:46;;;;;;;26.90;10.03;;;;;;;-1.28;100.00;101656.78;5050893;28;20572;-73
2020/12/19 00:25:12;;;;;;;21.77;9.70;;;;;;;-1.33;100.00;101654.03;5052476;28;20222;-73
2020/12/19 00:27:38;;;;;;;24.93;9.57;;;;;;;-1.33;100.00;101655.72;5052970;28;20253;-74
2020/12/19 00:30:06;;;;;;;21.23;10.03;;;;;;;-1.34;100.00;101654.84;5038828;28;20221;-73
2020/12/19 00:32:32;;;;;;;26.73;9.23;;;;;;;-1.33;100.00;101655.72;5050455;28;20226;-73
2020/12/19 00:34:59;;;;;;;26.73;11.13;;;;;;;-1.35;100.00;101642.00;5052093;28;20191;-74
2020/12/19 00:37:25;;;;;;;21.23;8.90;;;;;;;-1.35;100.00;101645.41;5033931;28;20222;-73
2020/12/19 00:39:51;;;;;;;23.87;10.07;;;;;;;-1.33;100.00;101643.78;5054192;28;20218;-73
2020/12/19 00:42:17;;;;;;;27.23;10.30;;;;;;;-1.37;100.00;101633.41;5054686;28;20533;-73
2020/12/19 00:44:43;;;;;;;28.43;10.50;;;;;;;-1.38;100.00;101634.19;5054080;28;20211;-74
2020/12/19 00:47:09;;;;;;;23.47;9.97;;;;;;;-1.34;100.00;101634.38;5051791;28;20250;-73
2020/12/19 00:49:35;;;;;;;24.73;9.87;;;;;;;-1.37;100.00;101626.56;5040144;28;20222;-76
2020/12/19 00:52:03;;;;;;;25.07;9.57;;;;;;;-1.36;100.00;101624.88;5049936;28;20195;-73
2020/12/19 00:54:29;;;;;;;21.97;9.40;;;;;;;-1.31;100.00;101625.06;5054234;28;20845;-74
2020/12/19 00:56:55;;;;;;;21.80;9.23;;;;;;;-1.28;100.00;101620.09;5057686;28;20211;-73
2020/12/19 00:59:20;;;;;;;24.57;10.20;;;;;;;-1.26;100.00;101624.44;5060717;28;20222;-73
2020/12/19 01:01:46;;;;;;;21.97;10.13;;;;;;;-1.27;100.00;101621.81;5059130;28;20274;-73
2020/12/19 01:04:12;;;;;;;26.43;10.37;;;;;;;-1.30;100.00;101625.13;5052714;28;20214;-74
2020/12/19 01:06:38;;;;;;;20.30;9.67;;;;;;;-1.29;100.00;101626.00;5062575;28;20276;-74
2020/12/19 01:09:05;;;;;;;22.17;8.90;;;;;;;-1.30;100.00;101624.25;5056895;28;20194;-74
2020/12/19 01:11:33;;;;;;;25.00;9.47;;;;;;;-1.30;100.00;101624.25;5033618;28;20187;-74
2020/12/19 01:13:59;;;;;;;24.83;9.43;;;;;;;-1.34;100.00;101629.25;5047584;28;20247;-74
2020/12/19 01:16:28;;;;;;;25.70;9.17;;;;;;;-1.35;100.00;101626.66;5049894;28;20612;-74
2020/12/19 01:18:55;;;;;;;26.03;10.03;;;;;;;-1.36;100.00;101624.88;5046311;28;20603;-73
2020/12/19 01:21:28;;;;;;;23.23;8.87;;;;;;;-1.38;100.00;101627.38;5048890;28;20219;-73
2020/12/19 01:23:55;;;;;;;25.80;9.33;;;;;;;-1.39;100.00;101620.53;5049757;28;20195;-74
2020/12/19 01:26:22;;;;;;;22.30;9.13;;;;;;;-1.40;100.00;101623.03;5051252;28;20214;-74
2020/12/19 01:28:49;;;;;;;22.53;8.87;;;;;;;-1.41;100.00;101622.13;5042026;28;20200;-73
2020/12/19 01:31:17;;;;;;;20.80;9.63;;;;;;;-1.42;100.00;101612.72;5053794;28;20226;-74
2020/12/19 01:33:43;;;;;;;26.07;9.47;;;;;;;-1.42;100.00;101614.44;5055717;28;20249;-73
2020/12/19 01:36:11;;;;;;;22.13;10.00;;;;;;;-1.36;100.00;101615.50;5050221;28;20572;-73
2020/12/19 01:38:38;;;;;;;26.10;10.00;;;;;;;-1.36;100.00;101607.84;5069182;28;20790;-73
2020/12/19 01:41:04;;;;;;;19.90;9.07;;;;;;;-1.31;100.00;101607.16;5052878;28;20571;-73
2020/12/19 01:43:44;;;;;;;23.43;9.27;;;;;;;-1.26;100.00;101600.53;5050044;28;20203;-74
2020/12/19 01:46:10;;;;;;;23.57;8.07;;;;;;;-1.31;100.00;101602.03;5032247;28;20604;-74
2020/12/19 01:48:37;;;;;;;25.53;8.53;;;;;;;-1.25;100.00;101602.25;5061689;28;20206;-73
2020/12/19 01:51:03;;;;;;;23.97;10.00;;;;;;;-1.22;100.00;101605.81;5040049;28;20699;-74
2020/12/19 01:53:30;;;;;;;23.57;9.63;;;;;;;-1.21;100.00;101602.44;5054638;28;20283;-73
2020/12/19 01:55:57;;;;;;;27.43;10.27;;;;;;;-1.21;100.00;101594.75;5050457;28;20186;-74
2020/12/19 01:58:23;;;;;;;27.23;9.70;;;;;;;-1.12;100.00;101598.50;5047240;28;20200;-73
2020/12/19 02:00:50;;;;;;;28.73;10.70;;;;;;;-1.07;100.00;101590.16;5061628;28;20222;-74
2020/12/19 02:03:15;;;;;;;31.00;10.10;;;;;;;-1.01;100.00;101585.25;5036074;28;20203;-74
2020/12/19 02:05:43;;;;;;;27.57;10.20;;;;;;;-1.06;100.00;101589.31;5049105;28;20242;-74
2020/12/19 02:08:10;;;;;;;28.07;10.53;;;;;;;-1.03;100.00;101591.16;5033850;28;20618;-74
2020/12/19 02:10:37;;;;;;;24.00;9.93;;;;;;;-0.96;100.00;101586.28;5056558;28;20257;-73
2020/12/19 02:13:04;;;;;;;26.10;9.97;;;;;;;-0.92;100.00;101586.41;5050114;28;20703;-73
2020/12/19 02:15:39;;;;;;;25.83;10.10;;;;;;;-0.96;100.00;101576.06;5057228;28;20285;-73
2020/12/19 02:18:06;;;;;;;24.17;10.00;;;;;;;-0.98;100.00;101574.28;5049893;28;20191;-73
2020/12/19 02:20:32;;;;;;;24.57;10.33;;;;;;;-0.90;100.00;101577.09;5052794;28;20242;-74
2020/12/19 02:23:01;;;;;;;28.90;11.23;;;;;;;-0.85;100.00;101570.44;5043546;28;20277;-73
2020/12/19 02:25:31;;;;;;;35.00;10.73;;;;;;;-0.80;100.00;101569.78;5056975;28;20203;-73
2020/12/19 02:27:57;;;;;;;29.07;10.37;;;;;;;-0.84;100.00;101565.38;5044453;28;20606;-73
2020/12/19 02:30:23;;;;;;;27.83;10.10;;;;;;;-0.81;100.00;101559.50;5051638;28;20223;-73
2020/12/19 02:32:49;;;;;;;28.47;10.60;;;;;;;-0.80;100.00;101556.13;5059794;28;20209;-73
2020/12/19 02:35:15;;;;;;;30.47;11.03;;;;;;;-0.78;100.00;101557.91;5049023;28;20206;-74
2020/12/19 02:37:40;;;;;;;32.00;11.37;;;;;;;-0.73;100.00;101563.19;5051092;28;20187;-74
2020/12/19 02:40:06;;;;;;;30.90;11.07;;;;;;;-0.66;100.00;101559.16;5056738;28;20222;-74
2020/12/19 02:42:33;;;;;;;25.73;10.23;;;;;;;-0.69;100.00;101559.06;5060460;28;20281;-74
2020/12/19 02:44:59;;;;;;;28.93;10.80;;;;;;;-0.75;100.00;101557.16;5051726;28;20225;-74
2020/12/19 02:47:25;;;;;;;34.53;11.20;;;;;;;-0.77;100.00;101558.81;5057324;28;20269;-74
2020/12/19 02:49:51;;;;;;;28.47;9.73;;;;;;;-0.83;100.00;101553.44;5052055;28;20218;-73
2020/12/19 02:52:16;;;;;;;33.17;10.17;;;;;;;-0.81;100.00;101555.25;5059731;28;20206;-74
2020/12/19 02:54:42;;;;;;;30.00;9.27;;;;;;;-0.84;100.00;101550.03;5057344;28;20886;-73
2020/12/19 02:57:08;;;;;;;34.07;11.73;;;;;;;-0.81;100.00;101550.13;5051844;28;20234;-73
2020/12/19 02:59:35;;;;;;;32.17;11.13;;;;;;;-0.82;100.00;101548.38;5055611;28;20223;-73
2020/12/19 03:02:01;;;;;;;32.63;11.40;;;;;;;-0.82;100.00;101545.81;5059821;28;20706;-73
2020/12/19 03:04:27;;;;;;;29.77;10.97;;;;;;;-0.80;100.00;101548.44;5059076;28;20286;-74
2020/12/19 03:06:52;;;;;;;33.30;11.83;;;;;;;-0.84;100.00;101550.03;5051924;28;20630;-73
2020/12/19 03:09:20;;;;;;;34.97;11.30;;;;;;;-0.80;100.00;101546.75;5061955;28;20251;-73
2020/12/19 03:11:46;;;;;;;36.60;11.60;;;;;;;-0.74;100.00;101543.50;5060653;28;20199;-73
2020/12/19 03:14:12;;;;;;;29.60;10.33;;;;;;;-0.75;100.00;101543.50;5056910;28;20265;-75
2020/12/19 03:16:38;;;;;;;36.30;11.57;;;;;;;-0.78;100.00;101542.53;5052062;28;20779;-73
2020/12/19 03:19:04;;;;;;;32.83;10.30;;;;;;;-0.80;100.00;101546.75;5054791;28;20269;-73
2020/12/19 03:21:30;;;;;;;36.23;12.10;;;;;;;-0.82;100.00;101544.97;5052292;28;20196;-74
2020/12/19 03:23:56;;;;;;;35.53;11.47;;;;;;;-0.81;100.00;101550.13;5056218;28;20199;-73
2020/12/19 03:26:22;;;;;;;33.40;10.60;;;;;;;-0.84;100.00;101550.03;5060631;28;20214;-74
2020/12/19 03:28:47;;;;;;;36.77;11.43;;;;;;;-0.87;100.00;101546.47;5055348;28;20187;-74
2020/12/19 03:31:13;;;;;;;29.73;11.00;;;;;;;-0.89;100.00;101540.44;5054156;28;20207;-73
2020/12/19 03:33:40;;;;;;;30.87;11.33;;;;;;;-0.92;100.00;101542.88;5043567;28;20256;-74
2020/12/19 03:36:06;;;;;;;32.93;11.40;;;;;;;-0.90;100.00;101537.00;5033029;28;20187;-74
2020/12/19 03:38:32;;;;;;;38.97;11.73;;;;;;;-0.89;100.00;101537.88;5052088;28;20686;-74
2020/12/19 03:40:58;;;;;;;31.40;11.10;;;;;;;-0.97;100.00;101529.91;5038538;28;20223;-74
2020/12/19 03:43:24;;;;;;;32.73;11.73;;;;;;;-0.99;100.00;101529.84;5034724;28;20211;-73
2020/12/19 03:45:50;;;;;;;32.33;11.10;;;;;;;-1.00;100.00;101533.25;5051493;28;20277;-73
2020/12/19 03:48:16;;;;;;;34.73;11.40;;;;;;;-0.98;100.00;101529.06;5066592;28;20233;-74
2020/12/19 03:50:43;;;;;;;35.73;11.33;;;;;;;-0.99;100.00;101534.97;5052895;28;20223;-73
2020/12/19 03:53:08;;;;;;;36.57;11.30;;;;;;;-0.99;100.00;101527.28;5056150;28;20194;-73
2020/12/19 03:55:34;;;;;;;40.37;12.43;;;;;;;-1.02;100.00;101527.22;5049645;28;20249;-73
2020/12/19 03:58:00;;;;;;;36.60;11.63;;;;;;;-1.05;100.00;101532.22;5051201;28;20202;-73
2020/12/19 04:00:26;;;;;;;35.23;11.80;;;;;;;-1.05;100.00;101527.09;5064476;28;20211;-74
2020/12/19 04:02:52;;;;;;;32.03;11.67;;;;;;;-1.08;100.00;101526.97;5053670;28;20202;-73
2020/12/19 04:05:18;;;;;;;36.23;10.97;;;;;;;-1.10;100.00;101520.94;5042605;28;20306;-74
2020/12/19 04:07:44;;;;;;;36.00;11.20;;;;;;;-1.13;100.00;101522.50;5055225;28;20210;-74
2020/12/19 04:10:10;;;;;;;32.00;11.27;;;;;;;-1.13;100.00;101515.69;5058072;28;20218;-73
2020/12/19 04:12:36;;;;;;;38.67;12.30;;;;;;;-1.15;100.00;101518.19;5051398;28;20257;-74
2020/12/19 04:15:04;;;;;;;31.73;11.70;;;;;;;-1.16;100.00;101515.59;5051136;28;20223;-73
2020/12/19 04:17:29;;;;;;;42.20;12.63;;;;;;;-1.21;100.00;101514.56;5054807;28;20203;-73
2020/12/19 04:19:55;;;;;;;33.23;11.97;;;;;;;-1.20;100.00;101518.84;5070062;28;20327;-74
2020/12/19 04:22:21;;;;;;;41.20;11.77;;;;;;;-1.25;100.00;101515.25;5040071;28;20207;-73
2020/12/19 04:24:48;;;;;;;41.20;12.37;;;;;;;-1.23;100.00;101516.19;5033351;28;20211;-74
2020/12/19 04:27:14;;;;;;;40.73;12.37;;;;;;;-1.26;100.00;101513.53;5059164;28;20234;-74
2020/12/19 04:29:40;;;;;;;30.17;11.67;;;;;;;-1.29;100.00;101504.03;5062456;28;20702;-74
2020/12/19 04:32:06;;;;;;;35.97;11.20;;;;;;;-1.34;100.00;101511.56;5053102;28;20234;-74
2020/12/19 04:34:32;;;;;;;34.77;11.43;;;;;;;-1.35;100.00;101512.38;5058539;28;20663;-73
2020/12/19 04:36:57;;;;;;;35.33;11.70;;;;;;;-1.37;100.00;101514.00;5050800;28;20192;-74
2020/12/19 04:39:23;;;;;;;35.20;11.27;;;;;;;-1.39;100.00;101514.75;5054203;28;20292;-73
2020/12/19 04:41:50;;;;;;;41.33;12.17;;;;;;;-1.42;100.00;101515.53;5037725;28;20795;-74
2020/12/19 04:44:17;;;;;;;33.73;11.73;;;;;;;-1.46;100.00;101517.91;5025004;28;20208;-74
2020/12/19 04:46:44;;;;;;;28.33;10.60;;;;;;;-1.48;100.00;101515.28;5057151;28;20592;-74
2020/12/19 04:49:10;;;;;;;31.70;11.27;;;;;;;-1.46;100.00;101516.22;5051690;28;20207;-74
2020/12/19 04:51:37;;;;;;;31.70;12.33;;;;;;;-1.45;100.00;101512.84;5055889;28;20194;-74
2020/12/19 04:54:04;;;;;;;33.00;12.23;;;;;;;-1.49;100.00;101517.81;5052494;28;20203;-73
2020/12/19 04:56:30;;;;;;;40.40;12.27;;;;;;;-1.53;100.00;101524.47;5046347;28;20199;-74
2020/12/19 04:58:59;;;;;;;34.07;11.87;;;;;;;-1.54;100.00;101517.63;5054707;28;20287;-74
2020/12/19 05:01:26;;;;;;;36.30;12.07;;;;;;;-1.56;100.00;101511.59;5048879;28;20207;-74
2020/12/19 05:03:52;;;;;;;35.60;11.63;;;;;;;-1.61;100.00;101519.06;5048477;28;20690;-73
2020/12/19 05:06:19;;;;;;;37.83;12.00;;;;;;;-1.62;100.00;101517.34;5046597;28;20223;-73
2020/12/19 05:08:45;;;;;;;39.70;12.97;;;;;;;-1.65;100.00;101512.09;5038079;28;20202;-73
2020/12/19 05:11:13;;;;;;;32.33;11.57;;;;;;;-1.64;100.00;101506.16;5042821;28;20226;-73
2020/12/19 05:13:40;;;;;;;40.47;12.37;;;;;;;-1.61;100.00;101507.97;5049563;28;20668;-74
2020/12/19 05:16:07;;;;;;;41.13;11.77;;;;;;;-1.60;100.00;101508.03;5049667;28;20689;-74
2020/12/19 05:18:35;;;;;;;26.33;11.00;;;;;;;-1.58;100.00;101510.66;5047652;28;20838;-74
2020/12/19 05:21:02;;;;;;;29.23;10.87;;;;;;;-1.57;100.00;101505.56;5050035;28;20226;-74
2020/12/19 05:23:28;;;;;;;33.40;12.23;;;;;;;-1.49;100.00;101505.88;5052192;28;20229;-74
2020/12/19 05:25:55;;;;;;;36.03;11.00;;;;;;;-1.50;100.00;101509.22;5049521;28;20226;-73
2020/12/19 05:28:21;;;;;;;40.03;11.97;;;;;;;-1.53;100.00;101509.13;5050350;28;20260;-74
2020/12/19 05:30:49;;;;;;;29.23;11.43;;;;;;;-1.56;100.00;101509.88;5050678;28;20663;-74
2020/12/19 05:33:16;;;;;;;31.97;11.47;;;;;;;-1.51;100.00;101507.50;5045864;28;20268;-73
2020/12/19 05:35:44;;;;;;;35.23;12.27;;;;;;;-1.44;100.00;101511.13;5055566;28;20234;-74
2020/12/19 05:38:10;;;;;;;29.03;11.40;;;;;;;-1.44;100.00;101508.59;5047826;28;20208;-74
2020/12/19 05:40:36;;;;;;;27.57;12.07;;;;;;;-1.44;100.00;101506.91;5051239;28;20225;-74
2020/12/19 05:43:02;;;;;;;33.43;11.77;;;;;;;-1.43;100.00;101512.91;5044729;28;20706;-74
2020/12/19 05:45:29;;;;;;;32.53;10.93;;;;;;;-1.45;100.00;101505.16;5051853;28;20218;-74
2020/12/19 05:47:55;;;;;;;25.30;11.23;;;;;;;-1.47;100.00;101511.91;5047455;28;20261;-74
2020/12/19 05:50:23;;;;;;;39.67;11.53;;;;;;;-1.46;100.00;101513.66;5052425;28;20899;-74
2020/12/19 05:52:49;;;;;;;27.37;10.80;;;;;;;-1.46;100.00;101507.66;5049654;28;20200;-74
2020/12/19 05:55:17;;;;;;;29.53;10.97;;;;;;;-1.42;100.00;101504.44;5047288;28;20199;-74
2020/12/19 05:57:43;;;;;;;36.47;11.53;;;;;;;-1.36;100.00;101508.06;5048282;28;20203;-74
2020/12/19 06:00:12;;;;;;;33.33;10.97;;;;;;;-1.39;100.00;101505.41;5048941;28;20505;-74
2020/12/19 06:02:39;;;;;;;32.30;10.90;;;;;;;-1.39;100.00;101501.94;5053464;28;20216;-74
2020/12/19 06:05:07;;;;;;;27.40;10.23;;;;;;;-1.36;100.00;101507.19;5045063;28;20216;-73
2020/12/19 06:07:38;;;;;;;31.17;11.43;;;;;;;-1.41;100.00;101506.16;5049914;28;20195;-74
2020/12/19 06:10:06;;;;;;;36.87;11.67;;;;;;;-1.37;100.00;101506.31;5029369;28;20494;-74
2020/12/19 06:12:53;;;;;;;27.60;11.40;;;;;;;-1.37;100.00;101510.59;5048103;28;20191;-74
2020/12/19 06:15:28;;;;;;;22.10;10.70;;;;;;;-1.42;100.00;101512.97;5046753;28;20557;-74
2020/12/19 06:17:59;;;;;;;26.13;10.33;;;;;;;-1.46;100.00;101510.22;5052809;28;20194;-74
2020/12/19 06:20:29;;;;;;;26.87;10.40;;;;;;;-1.57;100.00;101513.25;5042010;28;20238;-74
2020/12/19 06:22:55;;;;;;;30.37;11.23;;;;;;;-1.57;100.00;101513.25;5054532;28;20210;-77
2020/12/19 06:25:40;;;;;;;29.63;11.40;;;;;;;-1.57;100.00;101508.13;5050758;28;20215;-77
2020/12/19 06:28:05;;;;;;;30.23;11.67;;;;;;;-1.57;100.00;101509.81;5061555;28;20202;-75
2020/12/19 06:30:31;;;;;;;29.30;10.63;;;;;;;-1.58;100.00;101503.84;5058695;28;20304;-74
2020/12/19 06:33:16;;;;;;;28.70;10.70;;;;;;;-1.57;100.00;101517.50;5056451;28;20192;-75
2020/12/19 06:35:51;;;;;;;30.63;11.17;;;;;;;-1.60;100.00;101512.25;5048297;28;20195;-74
2020/12/19 06:38:43;;;;;;;27.80;10.23;;;;;;;-1.55;100.00;101505.63;5030479;28;20195;-74
2020/12/19 06:41:10;;;;;;;25.20;9.97;;;;;;;-1.58;100.00;101506.41;5035260;28;20219;-73
2020/12/19 06:43:36;;;;;;;33.33;13.20;;;;;;;-1.58;100.00;101508.09;5059816;28;20198;-74
2020/12/19 06:46:02;;;;;;;50.83;21.40;;;;;;;-1.54;100.00;101509.94;5057975;28;20747;-74
2020/12/19 06:48:30;;;;;;;45.43;18.60;;;;;;;-1.53;100.00;101506.56;5060556;28;20329;-74
2020/12/19 06:50:58;;;;;;;30.73;13.47;;;;;;;-1.49;100.00;101497.34;5042124;28;20241;-77
2020/12/19 06:53:25;;;;;;;33.93;15.50;;;;;;;-1.48;100.00;101506.75;5052049;28;21415;-76
2020/12/19 06:55:52;;;;;;;31.00;13.17;;;;;;;-1.44;100.00;101501.81;5059922;28;20210;-77
2020/12/19 06:58:27;;;;;;;32.17;12.53;;;;;;;-1.43;100.00;101508.66;5057183;28;20587;-77
2020/12/19 07:00:53;;;;;;;33.17;12.57;;;;;;;-1.43;100.00;101507.78;5057189;28;20215;-77
2020/12/19 07:03:35;;;;;;;31.43;11.87;;;;;;;-1.43;100.00;101508.66;5045596;28;20309;-77
2020/12/19 07:06:16;;;;;;;22.83;11.37;;;;;;;-1.43;100.00;101508.66;5053290;28;20245;-75
2020/12/19 07:08:43;;;;;;;28.43;10.93;;;;;;;-1.46;100.00;101516.22;5047439;28;20211;-73
2020/12/19 07:11:13;;;;;;;27.97;10.27;;;;;;;-1.44;100.00;101514.59;5033523;28;20219;-74
2020/12/19 07:13:55;;;;;;;28.63;10.43;;;;;;;-1.47;100.00;101504.25;5052642;28;20198;-74
2020/12/19 07:16:46;;;;;;;24.03;10.07;;;;;;;-1.46;100.00;101503.44;5064996;28;20557;-74
2020/12/19 07:19:21;;;;;;;26.00;9.90;;;;;;;-1.46;100.00;101502.53;5057334;28;20207;-74
2020/12/19 07:21:47;;;;;;;22.03;9.67;;;;;;;-1.47;100.00;101498.25;5062695;28;20198;-74
2020/12/19 07:24:14;;;;;;;29.57;11.00;;;;;;;-1.49;100.00;101503.31;5039513;28;20208;-74
2020/12/19 07:26:41;;;;;;;22.60;9.30;;;;;;;-1.50;100.00;101506.69;5049440;28;20219;-74
2020/12/19 07:29:19;;;;;;;27.50;10.77;;;;;;;-1.48;100.00;101496.50;5048448;28;20680;-75
2020/12/19 07:31:46;;;;;;;21.70;9.40;;;;;;;-1.49;100.00;101497.34;5054986;28;20706;-74
2020/12/19 07:34:12;;;;;;;27.13;10.37;;;;;;;-1.50;100.00;101493.88;5044196;28;20207;-75
2020/12/19 07:36:40;;;;;;;25.37;9.37;;;;;;;-1.50;100.00;101493.03;5057313;28;20198;-74
2020/12/19 07:39:07;;;;;;;24.83;9.90;;;;;;;-1.52;100.00;101493.81;5053324;28;20201;-74
2020/12/19 07:41:34;;;;;;;25.67;9.63;;;;;;;-1.53;100.00;101492.09;5066096;28;20651;-74
2020/12/19 07:44:12;;;;;;;27.67;10.23;;;;;;;-1.49;100.00;101502.47;5055396;28;20203;-74
2020/12/19 07:46:51;;;;;;;20.83;9.60;;;;;;;-1.46;100.00;101494.88;5051946;28;20214;-74
2020/12/19 07:49:38;;;;;;;21.07;9.63;;;;;;;-1.39;100.00;101507.97;5053188;28;20565;-75
2020/12/19 07:52:11;;;;;;;23.23;10.47;;;;;;;-1.36;100.00;101504.63;5055186;28;20203;-74
2020/12/19 07:54:38;;;;;;;23.43;10.17;;;;;;;-1.33;100.00;101500.50;5039837;28;20545;-75
2020/12/19 07:57:05;;;;;;;23.47;9.27;;;;;;;-1.28;100.00;101503.22;5058542;28;20269;-73
2020/12/19 07:59:32;;;;;;;24.27;10.27;;;;;;;-1.22;100.00;101497.47;5061765;28;20222;-74
2020/12/19 08:02:02;;;;;;;22.17;10.00;;;;;;;-1.14;100.00;101498.63;5054554;28;20733;-74
2020/12/19 08:04:29;;;;;;;23.40;9.87;;;;;;;-1.09;100.00;101498.75;5057329;28;20676;-74
2020/12/19 08:06:55;;;;;;;23.07;9.73;;;;;;;-1.06;100.00;101501.44;5062457;28;20309;-74
2020/12/19 08:09:21;;;;;;;22.70;9.53;;;;;;;-1.03;100.00;101501.56;5058140;28;20270;-74
2020/12/19 08:11:48;;;;;;;20.83;9.40;;;;;;;-0.95;100.00;101505.22;5038996;28;20729;-75
2020/12/19 08:14:15;;;;;;;22.83;9.93;;;;;;;-0.87;100.00;101501.25;5058823;28;20286;-77
2020/12/19 08:16:42;;;;;;;26.17;10.13;;;;;;;-0.87;100.00;101508.06;5064371;28;20289;-77
2020/12/19 08:19:10;;;;;;;20.20;9.23;;;;;;;-0.84;100.00;101508.19;5042364;28;20207;-77
2020/12/19 08:21:37;;;;;;;21.43;9.37;;;;;;;-0.81;100.00;101498.03;5067931;28;20206;-77
2020/12/19 08:24:04;;;;;;;28.80;11.50;;;;;;;-0.72;100.00;101503.50;5055867;28;20195;-74
2020/12/19 08:26:29;;;;;;;30.67;12.00;;;;;;;-0.69;100.00;101507.81;5048867;28;20227;-75
2020/12/19 08:29:03;;;;;;;25.50;10.73;;;;;;;-0.63;100.00;101497.81;5052301;28;20219;-75
2020/12/19 08:31:29;;;;;;;28.33;10.80;;;;;;;-0.55;100.00;101495.50;5055486;28;20187;-75
2020/12/19 08:33:57;;;;;;;23.87;10.60;;;;;;;-0.49;100.00;101488.88;5047722;28;20202;-75
2020/12/19 08:36:23;;;;;;;30.13;11.03;;;;;;;-0.42;100.00;101493.38;5061701;28;20187;-75
2020/12/19 08:38:49;;;;;;;18.90;9.50;;;;;;;-0.34;100.00;101485.94;5063780;28;20252;-75
2020/12/19 08:41:19;;;;;;;23.53;9.40;;;;;;;-0.25;100.00;101493.03;5057152;28;20218;-75
2020/12/19 08:43:46;;;;;;;20.13;9.10;;;;;;;-0.18;100.00;101497.53;5050230;28;20210;-75
2020/12/19 08:46:14;;;;;;;19.87;9.67;;;;;;;-0.13;100.00;101500.25;5049843;28;20218;-75
2020/12/19 08:48:40;;;;;;;20.03;8.60;;;;;;;-0.12;100.00;101492.63;5053488;28;20545;-75
2020/12/19 08:51:09;;;;;;;23.77;10.10;;;;;;;-0.07;100.00;101487.63;5051228;28;20230;-74
2020/12/19 08:53:35;;;;;;;25.40;10.17;;;;;;;-0.01;100.00;101488.69;5039699;28;20207;-75
2020/12/19 08:56:13;;;;;;;25.73;10.30;;;;;;;0.06;100.00;101492.31;5048340;28;20199;-75
2020/12/19 08:58:38;;;;;;;23.27;9.20;;;;;;;0.11;100.00;101495.03;5059481;28;20206;-74
2020/12/19 09:01:14;;;;;;;20.30;9.47;;;;;;;0.16;100.00;101496.91;5057535;28;20223;-74
2020/12/19 09:03:40;;;;;;;24.27;9.87;;;;;;;0.23;100.00;101494.50;5056322;28;20285;-74
2020/12/19 09:06:08;;;;;;;25.13;9.70;;;;;;;0.28;100.00;101491.28;5054271;28;20222;-75
2020/12/19 09:08:36;;;;;;;21.40;9.43;;;;;;;0.33;100.00;101492.25;5056930;28;20190;-74
2020/12/19 09:11:02;;;;;;;20.37;9.33;;;;;;;0.37;100.00;101491.56;5061636;28;20672;-75
2020/12/19 09:13:28;;;;;;;27.73;10.27;;;;;;;0.44;100.00;101490.03;5054940;28;20199;-74
2020/12/19 09:15:57;;;;;;;20.67;10.03;;;;;;;0.50;100.00;101491.91;5053386;28;20199;-74
2020/12/19 09:18:25;;;;;;;26.03;9.07;;;;;;;0.55;100.00;101498.91;5053970;28;20196;-74
2020/12/19 09:20:53;;;;;;;22.53;10.00;;;;;;;0.60;100.00;101496.50;5062106;28;20287;-75
2020/12/19 09:23:20;;;;;;;20.10;9.63;;;;;;;0.69;100.00;101494.16;5057399;28;20222;-74
2020/12/19 09:25:47;;;;;;;26.33;9.73;;;;;;;0.74;100.00;101486.59;5051391;28;20208;-74
2020/12/19 09:28:13;;;;;;;31.00;11.57;;;;;;;0.82;100.00;101491.94;5037806;28;20210;-74
2020/12/19 09:30:39;;;;;;;35.23;12.03;;;;;;;0.87;100.00;101488.66;5055981;28;20222;-75
2020/12/19 09:33:05;;;;;;;34.30;14.53;;;;;;;0.90;100.00;101485.34;5038037;28;20194;-74
2020/12/19 09:35:31;;;;;;;28.37;11.97;;;;;;;0.93;100.00;101485.38;5060621;28;20186;-75
2020/12/19 09:37:57;;;;;;;35.60;12.77;;;;;;;1.02;100.00;101488.22;5061692;28;20199;-74
2020/12/19 09:40:24;;;;;;;31.20;10.97;;;;;;;1.06;100.00;101486.63;5058669;28;20575;-75
2020/12/19 09:42:50;;;;;;;29.57;12.03;;;;;;;1.10;100.00;101483.28;5051987;28;20205;-75
2020/12/19 09:45:16;;;;;;;27.67;11.40;;;;;;;1.15;100.00;101484.28;5055863;28;20673;-74
2020/12/19 09:47:42;;;;;;;33.80;11.83;;;;;;;1.23;100.00;101485.34;5049676;28;20201;-74
2020/12/19 09:50:09;;;;;;;32.03;12.10;;;;;;;1.30;100.00;101476.09;5052193;28;20227;-74
2020/12/19 09:52:35;;;;;;;31.67;11.30;;;;;;;1.32;100.00;101485.59;5057262;28;20214;-75
2020/12/19 09:55:01;;;;;;;31.40;11.00;;;;;;;1.35;100.00;101483.91;5056322;28;20547;-75
2020/12/19 09:57:28;;;;;;;33.00;11.17;;;;;;;1.42;100.00;101490.94;5047101;28;20222;-75
2020/12/19 09:59:54;;;;;;;31.40;11.57;;;;;;;1.46;100.00;101483.38;5050905;28;20633;-75
2020/12/19 10:02:20;;;;;;;26.73;11.87;;;;;;;1.50;100.00;101490.31;5054121;28;20208;-74
2020/12/19 10:04:45;;;;;;;28.03;10.87;;;;;;;1.52;100.00;101493.78;5049265;28;20209;-74
2020/12/19 10:07:12;;;;;;;30.47;11.10;;;;;;;1.60;100.00;101490.53;5052569;28;20212;-75
2020/12/19 10:09:38;;;;;;;35.03;12.37;;;;;;;1.65;100.00;101489.84;5056813;28;20219;-75
2020/12/19 10:12:04;;;;;;;30.73;12.03;;;;;;;1.72;100.00;101484.81;5062577;28;20239;-74
2020/12/19 10:14:31;;;;;;;29.60;11.27;;;;;;;1.75;100.00;101492.63;5067747;28;20613;-75
2020/12/19 10:16:57;;;;;;;30.77;11.30;;;;;;;1.82;100.00;101490.22;5040559;28;20702;-75
2020/12/19 10:19:22;;;;;;;37.97;12.37;;;;;;;1.89;100.00;101488.66;5058458;28;20316;-75
2020/12/19 10:21:48;;;;;;;29.17;12.10;;;;;;;1.89;100.00;101489.53;5056313;28;20655;-75
2020/12/19 10:24:14;;;;;;;30.63;10.63;;;;;;;1.93;100.00;101489.59;5048679;28;20211;-74
2020/12/19 10:26:40;;;;;;;32.50;11.57;;;;;;;1.97;100.00;101492.28;5055258;28;20232;-74
2020/12/19 10:29:06;;;;;;;32.47;11.13;;;;;;;2.04;100.00;101488.13;5048859;28;20285;-75
2020/12/19 10:31:33;;;;;;;31.10;10.47;;;;;;;2.10;100.00;101493.44;5065073;28;20199;-75
2020/12/19 10:33:59;;;;;;;36.77;11.83;;;;;;;2.13;100.00;101482.31;5054210;28;20652;-75
2020/12/19 10:36:25;;;;;;;29.63;10.63;;;;;;;2.20;100.00;101481.63;5061096;28;20203;-75
2020/12/19 10:38:51;;;;;;;34.07;12.07;;;;;;;2.25;100.00;101485.16;5034369;28;20230;-75
2020/12/19 10:41:17;;;;;;;28.20;10.53;;;;;;;2.28;100.00;101480.97;5039122;28;20235;-75
2020/12/19 10:43:43;;;;;;;27.80;10.27;;;;;;;2.33;100.00;101483.63;5050353;28;20191;-74
2020/12/19 10:46:09;;;;;;;27.67;10.83;;;;;;;2.39;100.00;101483.78;5056528;28;20215;-74
2020/12/19 10:48:36;;;;;;;30.17;11.07;;;;;;;2.43;100.00;101470.13;5031025;28;20211;-74
2020/12/19 10:51:01;;;;;;;29.07;9.90;;;;;;;2.49;100.00;101479.69;5060161;28;20222;-74
2020/12/19 10:53:27;;;;;;;24.07;10.07;;;;;;;2.51;100.00;101470.28;5052521;28;20199;-75
2020/12/19 10:55:53;;;;;;;25.20;10.27;;;;;;;2.57;100.00;101475.56;5033388;28;20235;-75
2020/12/19 10:58:19;;;;;;;24.77;9.30;;;;;;;2.63;100.00;101475.69;5044832;28;20257;-75
2020/12/19 11:00:45;;;;;;;28.67;10.10;;;;;;;2.68;100.00;101472.34;5051559;28;20238;-75
2020/12/19 11:03:11;;;;;;;31.07;9.90;;;;;;;2.73;100.00;101476.75;5060364;28;20212;-75
2020/12/19 11:05:39;;;;;;;29.17;9.87;;;;;;;2.78;100.00;101476.81;5049933;28;20218;-74